sensor_id;sensor_type;location;lat;lon;timestamp;temperature;humidity
11140;DHT22;5624;49.388;11.350;2023-10-08T00:00:32;13.10;83.60
11140;DHT22;5624;49.388;11.350;2023-10-08T00:03:23;13.10;83.40
11140;DHT22;5624;49.388;11.350;2023-10-08T00:05:55;13.20;82.00
11140;DHT22;5624;49.388;11.350;2023-10-08T00:08:20;13.20;81.80
11140;DHT22;5624;49.388;11.350;2023-10-08T00:10:47;13.30;81.00
11140;DHT22;5624;49.388;11.350;2023-10-08T00:13:14;13.40;81.20
11140;DHT22;5624;49.388;11.350;2023-10-08T00:15:42;13.30;81.00
11140;DHT22;5624;49.388;11.350;2023-10-08T00:18:19;13.30;80.70
11140;DHT22;5624;49.388;11.350;2023-10-08T00:20:45;13.30;81.00
11140;DHT22;5624;49.388;11.350;2023-10-08T00:23:22;13.30;81.50
11140;DHT22;5624;49.388;11.350;2023-10-08T00:25:51;13.20;81.90
11140;DHT22;5624;49.388;11.350;2023-10-08T00:28:17;13.20;82.40
11140;DHT22;5624;49.388;11.350;2023-10-08T00:30:42;13.10;83.10
11140;DHT22;5624;49.388;11.350;2023-10-08T00:33:08;13.10;83.50
11140;DHT22;5624;49.388;11.350;2023-10-08T00:35:38;13.10;84.30
11140;DHT22;5624;49.388;11.350;2023-10-08T00:38:05;13.00;84.90
11140;DHT22;5624;49.388;11.350;2023-10-08T00:40:40;13.00;85.50
11140;DHT22;5624;49.388;11.350;2023-10-08T00:43:09;13.00;86.00
11140;DHT22;5624;49.388;11.350;2023-10-08T00:45:38;12.90;86.40
11140;DHT22;5624;49.388;11.350;2023-10-08T00:48:10;12.90;86.90
11140;DHT22;5624;49.388;11.350;2023-10-08T00:50:42;12.90;86.60
11140;DHT22;5624;49.388;11.350;2023-10-08T00:53:12;12.80;86.70
11140;DHT22;5624;49.388;11.350;2023-10-08T00:55:48;12.80;86.80
11140;DHT22;5624;49.388;11.350;2023-10-08T00:58:20;12.70;87.20
11140;DHT22;5624;49.388;11.350;2023-10-08T01:00:54;12.70;87.60
11140;DHT22;5624;49.388;11.350;2023-10-08T01:03:26;12.70;88.00
11140;DHT22;5624;49.388;11.350;2023-10-08T01:05:54;12.60;88.20
11140;DHT22;5624;49.388;11.350;2023-10-08T01:08:19;12.60;88.50
11140;DHT22;5624;49.388;11.350;2023-10-08T01:11:21;12.60;88.00
11140;DHT22;5624;49.388;11.350;2023-10-08T01:13:56;12.60;87.60
11140;DHT22;5624;49.388;11.350;2023-10-08T01:16:24;12.70;87.50
11140;DHT22;5624;49.388;11.350;2023-10-08T01:18:52;12.60;87.50
11140;DHT22;5624;49.388;11.350;2023-10-08T01:21:20;12.60;87.40
11140;DHT22;5624;49.388;11.350;2023-10-08T01:24:02;12.70;86.30
11140;DHT22;5624;49.388;11.350;2023-10-08T01:26:34;12.80;85.40
11140;DHT22;5624;49.388;11.350;2023-10-08T01:29:00;12.80;85.20
11140;DHT22;5624;49.388;11.350;2023-10-08T01:31:32;12.70;85.30
11140;DHT22;5624;49.388;11.350;2023-10-08T01:33:58;12.80;85.10
11140;DHT22;5624;49.388;11.350;2023-10-08T01:36:26;12.70;85.00
11140;DHT22;5624;49.388;11.350;2023-10-08T01:38:52;12.70;85.20
11140;DHT22;5624;49.388;11.350;2023-10-08T01:41:20;12.70;85.30
11140;DHT22;5624;49.388;11.350;2023-10-08T01:43:55;12.70;85.40
11140;DHT22;5624;49.388;11.350;2023-10-08T01:46:21;12.70;85.40
11140;DHT22;5624;49.388;11.350;2023-10-08T01:48:47;12.70;85.10
11140;DHT22;5624;49.388;11.350;2023-10-08T01:51:19;12.60;85.70
11140;DHT22;5624;49.388;11.350;2023-10-08T01:53:53;12.60;86.10
11140;DHT22;5624;49.388;11.350;2023-10-08T01:56:19;12.60;86.60
11140;DHT22;5624;49.388;11.350;2023-10-08T01:58:45;12.60;87.30
11140;DHT22;5624;49.388;11.350;2023-10-08T02:01:12;12.60;87.00
11140;DHT22;5624;49.388;11.350;2023-10-08T02:03:38;12.60;86.50
11140;DHT22;5624;49.388;11.350;2023-10-08T02:06:04;12.70;85.00
11140;DHT22;5624;49.388;11.350;2023-10-08T02:08:31;12.80;84.60
11140;DHT22;5624;49.388;11.350;2023-10-08T02:10:57;12.80;84.40
11140;DHT22;5624;49.388;11.350;2023-10-08T02:13:23;12.90;84.20
11140;DHT22;5624;49.388;11.350;2023-10-08T02:15:51;12.90;83.90
11140;DHT22;5624;49.388;11.350;2023-10-08T02:18:18;12.90;84.00
11140;DHT22;5624;49.388;11.350;2023-10-08T02:20:44;12.90;84.50
11140;DHT22;5624;49.388;11.350;2023-10-08T02:23:09;12.80;84.50
11140;DHT22;5624;49.388;11.350;2023-10-08T02:25:37;12.90;84.10
11140;DHT22;5624;49.388;11.350;2023-10-08T02:28:04;12.90;83.40
11140;DHT22;5624;49.388;11.350;2023-10-08T02:30:29;13.00;83.60
11140;DHT22;5624;49.388;11.350;2023-10-08T02:32:55;12.90;83.80
11140;DHT22;5624;49.388;11.350;2023-10-08T02:35:21;13.00;83.80
11140;DHT22;5624;49.388;11.350;2023-10-08T02:37:47;12.90;83.50
11140;DHT22;5624;49.388;11.350;2023-10-08T02:40:13;12.90;83.60
11140;DHT22;5624;49.388;11.350;2023-10-08T02:42:51;12.90;83.90
11140;DHT22;5624;49.388;11.350;2023-10-08T02:45:24;12.90;84.20
11140;DHT22;5624;49.388;11.350;2023-10-08T02:47:50;12.80;84.70
11140;DHT22;5624;49.388;11.350;2023-10-08T02:50:18;12.80;85.60
11140;DHT22;5624;49.388;11.350;2023-10-08T02:52:44;12.70;86.30
11140;DHT22;5624;49.388;11.350;2023-10-08T02:55:12;12.70;87.00
11140;DHT22;5624;49.388;11.350;2023-10-08T02:58:02;12.60;87.70
11140;DHT22;5624;49.388;11.350;2023-10-08T03:00:28;12.50;88.40
11140;DHT22;5624;49.388;11.350;2023-10-08T03:03:00;12.40;88.90
11140;DHT22;5624;49.388;11.350;2023-10-08T03:05:27;12.40;89.20
11140;DHT22;5624;49.388;11.350;2023-10-08T03:07:55;12.30;89.40
11140;DHT22;5624;49.388;11.350;2023-10-08T03:10:23;12.20;89.50
11140;DHT22;5624;49.388;11.350;2023-10-08T03:12:57;12.20;90.00
11140;DHT22;5624;49.388;11.350;2023-10-08T03:15:29;12.10;90.40
11140;DHT22;5624;49.388;11.350;2023-10-08T03:17:59;12.10;90.50
11140;DHT22;5624;49.388;11.350;2023-10-08T03:20:35;12.10;90.50
11140;DHT22;5624;49.388;11.350;2023-10-08T03:23:05;12.10;90.30
11140;DHT22;5624;49.388;11.350;2023-10-08T03:25:41;12.10;90.40
11140;DHT22;5624;49.388;11.350;2023-10-08T03:28:10;12.20;90.20
11140;DHT22;5624;49.388;11.350;2023-10-08T03:30:39;12.20;90.00
11140;DHT22;5624;49.388;11.350;2023-10-08T03:33:18;12.30;89.90
11140;DHT22;5624;49.388;11.350;2023-10-08T03:35:52;12.30;89.60
11140;DHT22;5624;49.388;11.350;2023-10-08T03:38:19;12.30;89.30
11140;DHT22;5624;49.388;11.350;2023-10-08T03:40:56;12.20;89.40
11140;DHT22;5624;49.388;11.350;2023-10-08T03:43:27;12.20;89.60
11140;DHT22;5624;49.388;11.350;2023-10-08T03:46:12;12.20;89.90
11140;DHT22;5624;49.388;11.350;2023-10-08T03:48:42;12.10;90.60
11140;DHT22;5624;49.388;11.350;2023-10-08T03:51:12;12.10;91.10
11140;DHT22;5624;49.388;11.350;2023-10-08T03:53:41;12.00;91.40
11140;DHT22;5624;49.388;11.350;2023-10-08T03:56:32;12.00;91.90
11140;DHT22;5624;49.388;11.350;2023-10-08T03:59:05;12.00;91.90
11140;DHT22;5624;49.388;11.350;2023-10-08T04:01:39;11.90;92.20
11140;DHT22;5624;49.388;11.350;2023-10-08T04:04:06;11.90;92.60
11140;DHT22;5624;49.388;11.350;2023-10-08T04:06:37;11.90;92.50
11140;DHT22;5624;49.388;11.350;2023-10-08T04:09:05;11.90;92.70
11140;DHT22;5624;49.388;11.350;2023-10-08T04:11:33;11.90;92.80
11140;DHT22;5624;49.388;11.350;2023-10-08T04:14:09;11.90;92.80
11140;DHT22;5624;49.388;11.350;2023-10-08T04:16:34;11.90;93.10
11140;DHT22;5624;49.388;11.350;2023-10-08T04:19:04;11.90;93.20
11140;DHT22;5624;49.388;11.350;2023-10-08T04:21:29;12.00;93.30
11140;DHT22;5624;49.388;11.350;2023-10-08T04:23:55;11.90;93.50
11140;DHT22;5624;49.388;11.350;2023-10-08T04:26:22;11.90;93.60
11140;DHT22;5624;49.388;11.350;2023-10-08T04:28:54;11.90;93.90
11140;DHT22;5624;49.388;11.350;2023-10-08T04:31:23;12.00;94.40
11140;DHT22;5624;49.388;11.350;2023-10-08T04:33:53;12.10;94.40
11140;DHT22;5624;49.388;11.350;2023-10-08T04:36:20;12.00;94.50
11140;DHT22;5624;49.388;11.350;2023-10-08T04:38:46;12.00;94.70
11140;DHT22;5624;49.388;11.350;2023-10-08T04:41:19;12.00;94.50
11140;DHT22;5624;49.388;11.350;2023-10-08T04:43:45;12.00;94.70
11140;DHT22;5624;49.388;11.350;2023-10-08T04:46:10;12.10;94.50
11140;DHT22;5624;49.388;11.350;2023-10-08T04:48:48;12.10;94.60
11140;DHT22;5624;49.388;11.350;2023-10-08T04:51:15;12.10;94.50
11140;DHT22;5624;49.388;11.350;2023-10-08T04:53:42;12.10;94.40
11140;DHT22;5624;49.388;11.350;2023-10-08T04:56:10;12.10;94.30
11140;DHT22;5624;49.388;11.350;2023-10-08T04:58:43;12.10;94.40
11140;DHT22;5624;49.388;11.350;2023-10-08T05:01:15;12.10;94.30
11140;DHT22;5624;49.388;11.350;2023-10-08T05:04:04;12.20;94.60
11140;DHT22;5624;49.388;11.350;2023-10-08T05:06:32;12.10;94.50
11140;DHT22;5624;49.388;11.350;2023-10-08T05:09:02;12.20;94.50
11140;DHT22;5624;49.388;11.350;2023-10-08T05:11:37;12.10;94.50
11140;DHT22;5624;49.388;11.350;2023-10-08T05:14:14;12.10;94.70
11140;DHT22;5624;49.388;11.350;2023-10-08T05:17:05;12.10;94.80
11140;DHT22;5624;49.388;11.350;2023-10-08T05:19:48;12.10;94.80
11140;DHT22;5624;49.388;11.350;2023-10-08T05:22:45;12.20;95.00
11140;DHT22;5624;49.388;11.350;2023-10-08T05:25:20;12.20;94.50
11140;DHT22;5624;49.388;11.350;2023-10-08T05:27:46;12.30;94.10
11140;DHT22;5624;49.388;11.350;2023-10-08T05:30:15;12.30;94.00
11140;DHT22;5624;49.388;11.350;2023-10-08T05:32:43;12.40;93.80
11140;DHT22;5624;49.388;11.350;2023-10-08T05:35:41;12.50;92.50
11140;DHT22;5624;49.388;11.350;2023-10-08T05:38:11;12.60;91.80
11140;DHT22;5624;49.388;11.350;2023-10-08T05:40:57;12.60;91.70
11140;DHT22;5624;49.388;11.350;2023-10-08T05:43:34;12.60;91.90
11140;DHT22;5624;49.388;11.350;2023-10-08T05:46:20;12.70;91.50
11140;DHT22;5624;49.388;11.350;2023-10-08T05:48:47;12.70;91.40
11140;DHT22;5624;49.388;11.350;2023-10-08T05:51:27;12.80;90.90
11140;DHT22;5624;49.388;11.350;2023-10-08T05:54:19;12.90;90.40
11140;DHT22;5624;49.388;11.350;2023-10-08T05:57:15;12.90;90.30
11140;DHT22;5624;49.388;11.350;2023-10-08T06:00:01;13.10;89.70
11140;DHT22;5624;49.388;11.350;2023-10-08T06:02:31;13.10;89.30
11140;DHT22;5624;49.388;11.350;2023-10-08T06:05:04;13.20;88.90
11140;DHT22;5624;49.388;11.350;2023-10-08T06:07:43;13.30;88.10
11140;DHT22;5624;49.388;11.350;2023-10-08T06:10:28;13.40;86.80
11140;DHT22;5624;49.388;11.350;2023-10-08T06:13:12;13.50;86.20
11140;DHT22;5624;49.388;11.350;2023-10-08T06:15:57;13.60;86.20
11140;DHT22;5624;49.388;11.350;2023-10-08T06:18:27;13.70;85.80
11140;DHT22;5624;49.388;11.350;2023-10-08T06:21:01;13.80;85.40
11140;DHT22;5624;49.388;11.350;2023-10-08T06:23:33;13.80;85.00
11140;DHT22;5624;49.388;11.350;2023-10-08T06:26:02;13.90;85.10
11140;DHT22;5624;49.388;11.350;2023-10-08T06:28:41;13.90;84.20
11140;DHT22;5624;49.388;11.350;2023-10-08T06:31:07;14.00;84.20
11140;DHT22;5624;49.388;11.350;2023-10-08T06:33:42;14.10;83.70
11140;DHT22;5624;49.388;11.350;2023-10-08T06:36:08;14.10;83.30
11140;DHT22;5624;49.388;11.350;2023-10-08T06:38:38;14.20;83.10
11140;DHT22;5624;49.388;11.350;2023-10-08T06:41:06;14.20;83.30
11140;DHT22;5624;49.388;11.350;2023-10-08T06:43:36;14.30;82.50
11140;DHT22;5624;49.388;11.350;2023-10-08T06:46:05;14.30;82.20
11140;DHT22;5624;49.388;11.350;2023-10-08T06:48:37;14.40;82.40
11140;DHT22;5624;49.388;11.350;2023-10-08T06:51:07;14.30;82.60
11140;DHT22;5624;49.388;11.350;2023-10-08T06:53:38;14.40;82.80
11140;DHT22;5624;49.388;11.350;2023-10-08T06:56:04;14.60;82.70
11140;DHT22;5624;49.388;11.350;2023-10-08T06:58:31;14.60;81.40
11140;DHT22;5624;49.388;11.350;2023-10-08T07:01:00;14.60;81.20
11140;DHT22;5624;49.388;11.350;2023-10-08T07:03:35;14.60;81.50
11140;DHT22;5624;49.388;11.350;2023-10-08T07:06:01;14.50;81.80
11140;DHT22;5624;49.388;11.350;2023-10-08T07:08:32;14.50;82.00
11140;DHT22;5624;49.388;11.350;2023-10-08T07:10:59;14.40;82.10
11140;DHT22;5624;49.388;11.350;2023-10-08T07:13:27;14.40;82.20
11140;DHT22;5624;49.388;11.350;2023-10-08T07:15:55;14.40;82.60
11140;DHT22;5624;49.388;11.350;2023-10-08T07:18:21;14.50;82.70
11140;DHT22;5624;49.388;11.350;2023-10-08T07:20:55;14.50;82.60
11140;DHT22;5624;49.388;11.350;2023-10-08T07:23:24;14.70;82.20
11140;DHT22;5624;49.388;11.350;2023-10-08T07:26:01;14.80;81.80
11140;DHT22;5624;49.388;11.350;2023-10-08T07:28:44;15.00;80.70
11140;DHT22;5624;49.388;11.350;2023-10-08T07:31:20;15.20;80.30
11140;DHT22;5624;49.388;11.350;2023-10-08T07:33:51;15.30;79.50
11140;DHT22;5624;49.388;11.350;2023-10-08T07:36:35;15.50;79.00
11140;DHT22;5624;49.388;11.350;2023-10-08T07:39:01;15.70;78.50
11140;DHT22;5624;49.388;11.350;2023-10-08T07:41:33;15.80;77.70
11140;DHT22;5624;49.388;11.350;2023-10-08T07:43:59;15.90;77.60
11140;DHT22;5624;49.388;11.350;2023-10-08T07:46:25;15.90;76.80
11140;DHT22;5624;49.388;11.350;2023-10-08T07:48:56;15.90;76.90
11140;DHT22;5624;49.388;11.350;2023-10-08T07:51:23;16.00;76.70
11140;DHT22;5624;49.388;11.350;2023-10-08T07:53:52;16.10;76.90
11140;DHT22;5624;49.388;11.350;2023-10-08T07:56:22;16.40;76.70
11140;DHT22;5624;49.388;11.350;2023-10-08T07:58:47;16.80;74.60
11140;DHT22;5624;49.388;11.350;2023-10-08T08:01:13;17.10;73.80
11140;DHT22;5624;49.388;11.350;2023-10-08T08:03:40;17.20;73.40
11140;DHT22;5624;49.388;11.350;2023-10-08T08:06:08;17.20;72.90
11140;DHT22;5624;49.388;11.350;2023-10-08T08:08:35;17.00;72.80
11140;DHT22;5624;49.388;11.350;2023-10-08T08:11:05;17.00;73.50
11140;DHT22;5624;49.388;11.350;2023-10-08T08:13:35;17.10;73.60
11140;DHT22;5624;49.388;11.350;2023-10-08T08:16:01;17.30;73.30
11140;DHT22;5624;49.388;11.350;2023-10-08T08:18:42;17.50;71.90
11140;DHT22;5624;49.388;11.350;2023-10-08T08:21:11;17.40;72.00
11140;DHT22;5624;49.388;11.350;2023-10-08T08:23:45;17.40;72.20
11140;DHT22;5624;49.388;11.350;2023-10-08T08:26:18;17.40;71.70
11140;DHT22;5624;49.388;11.350;2023-10-08T08:28:56;17.40;72.10
11140;DHT22;5624;49.388;11.350;2023-10-08T08:31:23;17.50;72.10
11140;DHT22;5624;49.388;11.350;2023-10-08T08:33:50;17.70;72.80
11140;DHT22;5624;49.388;11.350;2023-10-08T08:36:25;17.90;72.00
11140;DHT22;5624;49.388;11.350;2023-10-08T08:38:51;18.80;69.80
11140;DHT22;5624;49.388;11.350;2023-10-08T08:41:17;19.50;66.50
11140;DHT22;5624;49.388;11.350;2023-10-08T08:43:53;19.90;64.80
11140;DHT22;5624;49.388;11.350;2023-10-08T08:46:33;20.10;64.50
11140;DHT22;5624;49.388;11.350;2023-10-08T08:49:05;20.00;64.30
11140;DHT22;5624;49.388;11.350;2023-10-08T08:51:33;20.50;63.10
11140;DHT22;5624;49.388;11.350;2023-10-08T08:54:01;20.80;60.30
11140;DHT22;5624;49.388;11.350;2023-10-08T08:56:35;20.80;60.90
11140;DHT22;5624;49.388;11.350;2023-10-08T08:59:02;20.30;60.60
11140;DHT22;5624;49.388;11.350;2023-10-08T09:01:30;19.80;61.90
11140;DHT22;5624;49.388;11.350;2023-10-08T09:04:00;19.50;63.90
11140;DHT22;5624;49.388;11.350;2023-10-08T09:06:37;19.10;65.00
11140;DHT22;5624;49.388;11.350;2023-10-08T09:09:06;18.80;66.00
11140;DHT22;5624;49.388;11.350;2023-10-08T09:11:52;18.50;67.30
11140;DHT22;5624;49.388;11.350;2023-10-08T09:14:25;18.30;68.10
11140;DHT22;5624;49.388;11.350;2023-10-08T09:16:54;18.10;69.40
11140;DHT22;5624;49.388;11.350;2023-10-08T09:19:20;18.10;69.40
11140;DHT22;5624;49.388;11.350;2023-10-08T09:22:10;18.20;69.20
11140;DHT22;5624;49.388;11.350;2023-10-08T09:24:38;18.10;69.40
11140;DHT22;5624;49.388;11.350;2023-10-08T09:27:10;18.10;70.00
11140;DHT22;5624;49.388;11.350;2023-10-08T09:29:40;18.00;69.80
11140;DHT22;5624;49.388;11.350;2023-10-08T09:32:08;17.90;70.50
11140;DHT22;5624;49.388;11.350;2023-10-08T09:34:34;17.90;70.60
11140;DHT22;5624;49.388;11.350;2023-10-08T09:37:00;17.70;71.10
11140;DHT22;5624;49.388;11.350;2023-10-08T09:39:28;17.60;71.70
11140;DHT22;5624;49.388;11.350;2023-10-08T09:41:57;17.50;72.10
11140;DHT22;5624;49.388;11.350;2023-10-08T09:44:23;17.50;72.20
11140;DHT22;5624;49.388;11.350;2023-10-08T09:47:09;17.50;72.60
11140;DHT22;5624;49.388;11.350;2023-10-08T09:49:48;17.70;72.30
11140;DHT22;5624;49.388;11.350;2023-10-08T09:52:16;17.90;71.90
11140;DHT22;5624;49.388;11.350;2023-10-08T09:55:00;18.30;71.50
11140;DHT22;5624;49.388;11.350;2023-10-08T09:57:29;18.50;69.60
11140;DHT22;5624;49.388;11.350;2023-10-08T09:59:55;18.90;68.60
11140;DHT22;5624;49.388;11.350;2023-10-08T10:02:23;19.00;67.50
11140;DHT22;5624;49.388;11.350;2023-10-08T10:04:53;19.20;67.50
11140;DHT22;5624;49.388;11.350;2023-10-08T10:07:20;19.20;66.50
11140;DHT22;5624;49.388;11.350;2023-10-08T10:09:50;19.60;66.30
11140;DHT22;5624;49.388;11.350;2023-10-08T10:12:24;19.90;64.50
11140;DHT22;5624;49.388;11.350;2023-10-08T10:14:52;20.10;63.80
11140;DHT22;5624;49.388;11.350;2023-10-08T10:19:59;20.70;61.70
11140;DHT22;5624;49.388;11.350;2023-10-08T10:22:33;20.70;61.10
11140;DHT22;5624;49.388;11.350;2023-10-08T10:25:01;20.40;61.10
11140;DHT22;5624;49.388;11.350;2023-10-08T10:27:29;20.30;62.00
11140;DHT22;5624;49.388;11.350;2023-10-08T10:30:02;20.60;62.70
11140;DHT22;5624;49.388;11.350;2023-10-08T10:32:36;21.00;60.70
11140;DHT22;5624;49.388;11.350;2023-10-08T10:35:03;20.90;59.90
11140;DHT22;5624;49.388;11.350;2023-10-08T10:37:34;21.10;60.50
11140;DHT22;5624;49.388;11.350;2023-10-08T10:40:24;21.30;59.30
11140;DHT22;5624;49.388;11.350;2023-10-08T10:43:05;21.30;59.60
11140;DHT22;5624;49.388;11.350;2023-10-08T10:45:32;21.10;59.50
11140;DHT22;5624;49.388;11.350;2023-10-08T10:48:16;20.90;60.30
11140;DHT22;5624;49.388;11.350;2023-10-08T10:50:49;20.70;61.30
11140;DHT22;5624;49.388;11.350;2023-10-08T10:53:32;20.40;61.90
11140;DHT22;5624;49.388;11.350;2023-10-08T10:55:59;20.10;63.30
11140;DHT22;5624;49.388;11.350;2023-10-08T10:58:35;20.00;63.20
11140;DHT22;5624;49.388;11.350;2023-10-08T11:01:06;19.70;64.30
11140;DHT22;5624;49.388;11.350;2023-10-08T11:03:51;19.60;64.80
11140;DHT22;5624;49.388;11.350;2023-10-08T11:06:19;19.30;66.20
11140;DHT22;5624;49.388;11.350;2023-10-08T11:08:52;18.90;66.90
11140;DHT22;5624;49.388;11.350;2023-10-08T11:11:19;18.80;67.70
11140;DHT22;5624;49.388;11.350;2023-10-08T11:13:45;18.70;68.30
11140;DHT22;5624;49.388;11.350;2023-10-08T11:16:17;18.60;68.30
11140;DHT22;5624;49.388;11.350;2023-10-08T11:18:47;18.70;68.40
11140;DHT22;5624;49.388;11.350;2023-10-08T11:21:15;18.70;68.50
11140;DHT22;5624;49.388;11.350;2023-10-08T11:23:43;18.80;68.40
11140;DHT22;5624;49.388;11.350;2023-10-08T11:26:09;18.80;68.50
11140;DHT22;5624;49.388;11.350;2023-10-08T11:28:36;18.90;68.50
11140;DHT22;5624;49.388;11.350;2023-10-08T11:31:09;19.10;68.90
11140;DHT22;5624;49.388;11.350;2023-10-08T11:33:43;19.20;67.40
11140;DHT22;5624;49.388;11.350;2023-10-08T11:36:20;19.30;67.50
11140;DHT22;5624;49.388;11.350;2023-10-08T11:38:46;19.40;67.60
11140;DHT22;5624;49.388;11.350;2023-10-08T11:41:17;19.50;66.40
11140;DHT22;5624;49.388;11.350;2023-10-08T11:43:49;19.50;66.20
11140;DHT22;5624;49.388;11.350;2023-10-08T11:46:25;19.60;65.90
11140;DHT22;5624;49.388;11.350;2023-10-08T11:48:52;19.50;65.70
11140;DHT22;5624;49.388;11.350;2023-10-08T11:51:17;19.30;65.90
11140;DHT22;5624;49.388;11.350;2023-10-08T11:53:44;19.30;67.00
11140;DHT22;5624;49.388;11.350;2023-10-08T11:56:11;19.30;66.40
11140;DHT22;5624;49.388;11.350;2023-10-08T11:58:40;19.30;67.20
11140;DHT22;5624;49.388;11.350;2023-10-08T12:01:06;19.20;67.40
11140;DHT22;5624;49.388;11.350;2023-10-08T12:03:31;19.20;66.90
11140;DHT22;5624;49.388;11.350;2023-10-08T12:06:00;19.10;67.10
11140;DHT22;5624;49.388;11.350;2023-10-08T12:08:26;19.10;67.70
11140;DHT22;5624;49.388;11.350;2023-10-08T12:10:53;18.80;68.10
11140;DHT22;5624;49.388;11.350;2023-10-08T12:13:20;18.70;68.60
11140;DHT22;5624;49.388;11.350;2023-10-08T12:15:54;18.60;68.70
11140;DHT22;5624;49.388;11.350;2023-10-08T12:18:38;18.70;69.40
11140;DHT22;5624;49.388;11.350;2023-10-08T12:21:08;18.80;69.60
11140;DHT22;5624;49.388;11.350;2023-10-08T12:23:41;18.70;69.20
11140;DHT22;5624;49.388;11.350;2023-10-08T12:26:09;18.60;70.00
11140;DHT22;5624;49.388;11.350;2023-10-08T12:28:35;18.60;70.00
11140;DHT22;5624;49.388;11.350;2023-10-08T12:31:02;18.60;69.50
11140;DHT22;5624;49.388;11.350;2023-10-08T12:33:29;18.60;69.50
11140;DHT22;5624;49.388;11.350;2023-10-08T12:35:55;18.80;69.70
11140;DHT22;5624;49.388;11.350;2023-10-08T12:38:21;19.00;70.30
11140;DHT22;5624;49.388;11.350;2023-10-08T12:40:51;19.10;69.50
11140;DHT22;5624;49.388;11.350;2023-10-08T12:43:23;19.20;69.60
11140;DHT22;5624;49.388;11.350;2023-10-08T12:45:53;19.20;69.10
11140;DHT22;5624;49.388;11.350;2023-10-08T12:48:26;19.40;69.20
11140;DHT22;5624;49.388;11.350;2023-10-08T12:50:53;19.60;68.60
11140;DHT22;5624;49.388;11.350;2023-10-08T12:53:23;19.60;68.40
11140;DHT22;5624;49.388;11.350;2023-10-08T12:55:53;19.60;68.20
11140;DHT22;5624;49.388;11.350;2023-10-08T12:58:20;19.40;67.90
11140;DHT22;5624;49.388;11.350;2023-10-08T13:00:48;19.20;68.50
11140;DHT22;5624;49.388;11.350;2023-10-08T13:03:22;19.10;69.80
11140;DHT22;5624;49.388;11.350;2023-10-08T13:05:51;19.00;70.10
11140;DHT22;5624;49.388;11.350;2023-10-08T13:08:32;18.90;70.00
11140;DHT22;5624;49.388;11.350;2023-10-08T13:10:59;18.90;70.00
11140;DHT22;5624;49.388;11.350;2023-10-08T13:13:28;18.90;70.10
11140;DHT22;5624;49.388;11.350;2023-10-08T13:15:54;18.80;70.70
11140;DHT22;5624;49.388;11.350;2023-10-08T13:18:22;18.70;70.60
11140;DHT22;5624;49.388;11.350;2023-10-08T13:20:51;18.60;70.90
11140;DHT22;5624;49.388;11.350;2023-10-08T13:23:17;18.40;71.20
11140;DHT22;5624;49.388;11.350;2023-10-08T13:25:44;18.30;71.90
11140;DHT22;5624;49.388;11.350;2023-10-08T13:28:12;18.10;73.50
11140;DHT22;5624;49.388;11.350;2023-10-08T13:30:37;18.00;73.80
11140;DHT22;5624;49.388;11.350;2023-10-08T13:33:03;17.90;74.40
11140;DHT22;5624;49.388;11.350;2023-10-08T13:35:29;17.80;74.90
11140;DHT22;5624;49.388;11.350;2023-10-08T13:37:55;17.90;75.00
11140;DHT22;5624;49.388;11.350;2023-10-08T13:40:21;18.00;75.50
11140;DHT22;5624;49.388;11.350;2023-10-08T13:42:58;18.00;74.90
11140;DHT22;5624;49.388;11.350;2023-10-08T13:45:24;17.90;75.40
11140;DHT22;5624;49.388;11.350;2023-10-08T13:47:54;17.90;75.50
11140;DHT22;5624;49.388;11.350;2023-10-08T13:50:21;17.90;75.40
11140;DHT22;5624;49.388;11.350;2023-10-08T13:52:47;17.80;75.60
11140;DHT22;5624;49.388;11.350;2023-10-08T13:55:13;17.70;76.40
11140;DHT22;5624;49.388;11.350;2023-10-08T13:57:40;17.70;76.40
11140;DHT22;5624;49.388;11.350;2023-10-08T14:00:08;17.80;76.70
11140;DHT22;5624;49.388;11.350;2023-10-08T14:02:43;17.90;76.60
11140;DHT22;5624;49.388;11.350;2023-10-08T14:05:10;18.00;76.40
11140;DHT22;5624;49.388;11.350;2023-10-08T14:07:41;18.00;76.30
11140;DHT22;5624;49.388;11.350;2023-10-08T14:10:10;18.10;76.10
11140;DHT22;5624;49.388;11.350;2023-10-08T14:12:46;18.10;75.30
11140;DHT22;5624;49.388;11.350;2023-10-08T14:15:16;18.10;74.90
11140;DHT22;5624;49.388;11.350;2023-10-08T14:17:44;18.20;75.00
11140;DHT22;5624;49.388;11.350;2023-10-08T14:20:14;18.20;74.80
11140;DHT22;5624;49.388;11.350;2023-10-08T14:22:40;18.10;75.10
11140;DHT22;5624;49.388;11.350;2023-10-08T14:25:09;18.00;75.40
11140;DHT22;5624;49.388;11.350;2023-10-08T14:27:39;17.90;76.40
11140;DHT22;5624;49.388;11.350;2023-10-08T14:30:17;17.90;76.50
11140;DHT22;5624;49.388;11.350;2023-10-08T14:32:47;17.70;76.50
11140;DHT22;5624;49.388;11.350;2023-10-08T14:35:13;17.70;77.00
11140;DHT22;5624;49.388;11.350;2023-10-08T14:38:09;17.60;77.70
11140;DHT22;5624;49.388;11.350;2023-10-08T14:40:53;17.50;78.00
11140;DHT22;5624;49.388;11.350;2023-10-08T14:43:37;17.40;78.20
11140;DHT22;5624;49.388;11.350;2023-10-08T14:46:03;17.40;78.70
11140;DHT22;5624;49.388;11.350;2023-10-08T14:48:32;17.40;79.00
11140;DHT22;5624;49.388;11.350;2023-10-08T14:51:01;17.30;78.90
11140;DHT22;5624;49.388;11.350;2023-10-08T14:53:28;17.30;78.60
11140;DHT22;5624;49.388;11.350;2023-10-08T14:55:55;17.30;78.70
11140;DHT22;5624;49.388;11.350;2023-10-08T14:58:21;17.20;79.10
11140;DHT22;5624;49.388;11.350;2023-10-08T15:00:47;17.30;78.90
11140;DHT22;5624;49.388;11.350;2023-10-08T15:03:13;17.30;79.10
11140;DHT22;5624;49.388;11.350;2023-10-08T15:05:39;17.30;79.20
11140;DHT22;5624;49.388;11.350;2023-10-08T15:08:08;17.40;79.00
11140;DHT22;5624;49.388;11.350;2023-10-08T15:10:35;17.40;79.30
11140;DHT22;5624;49.388;11.350;2023-10-08T15:13:01;17.40;79.30
11140;DHT22;5624;49.388;11.350;2023-10-08T15:15:26;17.40;79.60
11140;DHT22;5624;49.388;11.350;2023-10-08T15:18:00;17.40;79.40
11140;DHT22;5624;49.388;11.350;2023-10-08T15:20:27;17.50;79.00
11140;DHT22;5624;49.388;11.350;2023-10-08T15:22:55;17.50;78.60
11140;DHT22;5624;49.388;11.350;2023-10-08T15:25:21;17.50;78.60
11140;DHT22;5624;49.388;11.350;2023-10-08T15:27:48;17.50;79.50
11140;DHT22;5624;49.388;11.350;2023-10-08T15:30:15;17.50;79.20
11140;DHT22;5624;49.388;11.350;2023-10-08T15:32:43;17.50;79.20
11140;DHT22;5624;49.388;11.350;2023-10-08T15:35:14;17.50;79.30
11140;DHT22;5624;49.388;11.350;2023-10-08T15:37:42;17.30;80.00
11140;DHT22;5624;49.388;11.350;2023-10-08T15:40:09;17.30;80.40
11140;DHT22;5624;49.388;11.350;2023-10-08T15:42:43;17.20;80.70
11140;DHT22;5624;49.388;11.350;2023-10-08T15:45:09;17.20;80.90
11140;DHT22;5624;49.388;11.350;2023-10-08T15:47:38;17.10;80.90
11140;DHT22;5624;49.388;11.350;2023-10-08T15:50:04;17.10;82.00
11140;DHT22;5624;49.388;11.350;2023-10-08T15:52:30;16.90;82.70
11140;DHT22;5624;49.388;11.350;2023-10-08T15:54:57;16.80;83.10